This is the latest recevied weather packets stored in our database for station/object KN6KDD. If no packets are shown the sender has not sent any weather packets the latest 1 day(s).
| Time | Temp. | Humidity | Pressure | Rain* | Wind** | Luminosity | Snow |
|---|---|---|---|---|---|---|---|
| 1778023029 | 15.56° C | 78% | 1354.8 hPa | 0 mm | 2.24 m/s, 291° | 183 W/m² | - |
| 1778022728 | 15.56° C | 78% | 1354.5 hPa | 0 mm | 0.89 m/s, 333° | 181 W/m² | - |
| 1778022426 | 16.11° C | 79% | 1354.8 hPa | 0 mm | 2.24 m/s, 308° | 189 W/m² | - |
| 1778022122 | 16.11° C | 81% | 1354.9 hPa | 0 mm | 1.79 m/s, 322° | 201 W/m² | - |
| 1778021819 | 16.11° C | 79% | 1354.8 hPa | 0 mm | 0.89 m/s, 291° | 173 W/m² | - |
| 1778021515 | 16.11° C | 81% | 1354.8 hPa | 0 mm | 0.89 m/s, 292° | 170 W/m² | - |
| 1778021211 | 16.11° C | 79% | 1354.7 hPa | 0 mm | 2.68 m/s, 314° | 192 W/m² | - |
| 1778020909 | 16.11° C | 78% | 1354.5 hPa | 0 mm | 2.68 m/s, 311° | 233 W/m² | - |
| 1778020606 | 16.11° C | 79% | 1354.9 hPa | 0 mm | 1.34 m/s, 318° | 264 W/m² | - |
| 1778020302 | 16.11° C | 78% | 1354.7 hPa | 0 mm | 1.34 m/s, 320° | 312 W/m² | - |
| 1778019998 | 16.67° C | 76% | 1354.9 hPa | 0 mm | 2.24 m/s, 335° | 327 W/m² | - |
| 1778019695 | 16.67° C | 77% | 1354.8 hPa | 0 mm | 1.79 m/s, 301° | 363 W/m² | - |
| 1778019392 | 16.67° C | 75% | 1354.8 hPa | 0 mm | 1.79 m/s, 287° | 424 W/m² | - |
| 1778019088 | 16.67° C | 77% | 1355.1 hPa | 0 mm | 1.34 m/s, 310° | 590 W/m² | - |
| 1778018786 | 16.67° C | 79% | 1354.9 hPa | 0 mm | 1.34 m/s, 13° | 989 W/m² | - |
| 1778018483 | 16.11° C | 79% | 1355.2 hPa | 0 mm | 1.79 m/s, 297° | 566 W/m² | - |
| 1778018181 | 15.56° C | 81% | 1355.2 hPa | 0 mm | 2.68 m/s, 275° | 451 W/m² | - |
| 1778017879 | 15.56° C | 81% | 1355.1 hPa | 0 mm | 0.89 m/s, 241° | 302 W/m² | - |
| 1778017577 | 15.56° C | 81% | 1355.2 hPa | 0 mm | 0.89 m/s, 292° | 323 W/m² | - |
| 1778017274 | 15.56° C | 81% | 1355.2 hPa | 0 mm | 2.68 m/s, 297° | 308 W/m² | - |
| 1778016971 | 15.56° C | 83% | 1355.2 hPa | 0 mm | 1.34 m/s, 287° | 266 W/m² | - |
| 1778016668 | 15.56° C | 79% | 1355.5 hPa | 0 mm | 2.68 m/s, 245° | 314 W/m² | - |
| 1778016364 | 15.56° C | 81% | 1355.5 hPa | 0 mm | 0.89 m/s, 336° | 354 W/m² | - |
| 1778016066 | 15.56° C | 81% | 1355.6 hPa | 0 mm | 0.89 m/s, 341° | 349 W/m² | - |
| 1778015758 | 15.56° C | 80% | 1355.2 hPa | 0 mm | 0.89 m/s, 45° | 295 W/m² | - |
* Rain latest hour (hover to see other rain measurements)
** Current wind speed in m/s (hover to see current wind gust speed)